Flight Track Log - Related Links

Times and Time Zones

All times are in EDT time to prevent confusion due to time zone crossing. See the N27XP flight status page for this flight to view local times or setup timezone preferences in your user account.

Time Position Orientation Groundspeed Altitude Reporting Facility
EDT Latitude Longitude Course Direction KTS MPH feet Rate Location/Type
Mon 05:15:10 PM 35.5150 -81.0561 79° East 264 304 2,500  Level Atlanta Center
Mon 05:15:16 PM 35.5169 -81.0433 79° East 272 313 2,500 618 Level Atlanta Center
Mon 05:16:18 PM 35.5294 -80.9586 80° East 257 296 3,200 1,220 Climbing Atlanta Center
Mon 05:17:19 PM 35.5292 -80.8719 90° East 252 290 5,000 836 Climbing Atlanta Center
Mon 05:18:20 PM 35.5083 -80.7858 107° East 269 310 4,900  Descending Atlanta Center
Mon 05:19:21 PM 35.4892 -80.7000 105° East 271 312 5,000 49 Climbing Atlanta Center
Mon 05:20:22 PM 35.4636 -80.6017 108° East 271 312 5,000 393 Level Atlanta Center
Mon 05:21:23 PM 35.4422 -80.5133 107° East 270 311 5,800 885 Climbing Atlanta Center
Mon 05:22:24 PM 35.4231 -80.4275 105° East 268 308 6,800 590 Climbing Atlanta Center
Mon 05:23:25 PM 35.3975 -80.3342 109° East 275 316 7,000 197 Climbing Atlanta Center
Mon 05:25:00 PM 35.3559 -80.2121 113° Southeast  Level FlightAware Approximate
Mon 05:32:00 PM 35.2167 -79.6490 90° East  Level FlightAware Approximate
Mon 05:33:00 PM 35.2051 -79.5782 39° Northeast  Level FlightAware Approximate
Mon 05:34:00 PM 35.2167 -79.5016 90° East  Level FlightAware Approximate
Mon 05:35:00 PM 35.2261 -79.4196 76° East  Level FlightAware Approximate
Mon 05:36:00 PM 35.2333 -79.3833 76° East  Level FlightAware Approximate
Mon 05:37:00 PM 35.2380 -79.3883 76° East  Level Estimated
Mon 05:38:00 PM 35.2333 -79.3833 76° East  Level FlightAware Approximate
Mon 05:39:00 PM 35.2380 -79.3883 76° East  Level Estimated
Mon 05:40:00 PM 35.2333 -79.3833 76° East  Level FlightAware Approximate
Mon 05:41:00 PM 35.2380 -79.3883 76° East  Level Estimated

Login

Don't have an account? Register now (free) for customized features, flight alerts, and more!